Lyndon, Pennsylvania
Current Conditions -  °F | °C
As of 7:53 PM on Sunday 23 Nov 2014 (Local Time) from KLNS Reporting Station
Broken Clouds Broken Clouds  
Wind Chill: 40°   Ceiling: 4800
Heat Index: 43°   Visibility: 10mi
Dew Point: 30°   Wind: 5mph
Humidity: 60%   Direction: 90°E
Pressure: 30.04"   Gusts: NA
Location:  40.0158°N, 76.2452°W
Report Text: KLNS 240053Z 09004KT 10SM BKN048 06/M01 A3004 RMK AO2 SLP176 T00611011
Loading
Personal Weather Stations






























Interactive Weather Map New forecast layout! Learn more

10-Day Weather Forecast

Advertisements
Track Severe Weather on mobile